Alden Manor, New York
Current Conditions -  °F | °C
As of 8:51 PM on Saturday 20 Dec 2014 (Local Time) from KJFK Reporting Station
Overcast Overcast  
Wind Chill: 29°   Ceiling: 3100
Heat Index: 34°   Visibility: 10mi
Dew Point: 21°   Wind: 6mph
Humidity: 59%   Direction: 20°NNE
Pressure: 30.3"   Gusts: NA
Location:  40.7013°N, 73.7074°W
Report Text: KJFK 210151Z 02005KT 10SM OVC031 01/M06 A3030 RMK AO2 SLP261 T00111061 $
Loading
Personal Weather Stations






























Interactive Weather Map New forecast layout! Learn more

10-Day Weather Forecast

Advertisements
Track Severe Weather on mobile